^^
Datos históricos de la estación: Murcia-Puente Tocinos
Diario Informe para Junio 24, 2019 Unidades:  Ambas    Ingés   Métrico
Diario Semanal Mensual Anual
  Máxima: Mínima: Promedio:
Temperatura: 74.8 °F /  23.8 °C 61.3 °F /  16.3 °C 66.7 °F /  19.3 °C
Punto de rocio: 61.3 °F /  16.3 °C 46.8 °F /  8.2 °C 55.6 °F /  13.1 °C
Humedad: 86% 38.3% 69%
Velocidad viento: 18.1mph /  29.1km/h - 6mph /  9.7km/h
Racha viento: 31.3mph /  50.4km/h - -
Viento- - Este
Presión: 30 in /  1014.2 hPa 29.8 in /  1010.6 hPa -
Precipitación: 0.13 in /  3.3 mm    
 
 
Tabla de datos para Junio 24, 2019
Hora Temperatura Punto de rocio Presión Viento Velocidad viento Racha viento Humedad Intensidad lluvia(por hora) Nubes
00:04 67.3 °F /  19.6 °C 60.8 °F /  16 °C 29.9in /  1013.6hPa NE 5.9mph /  9.5km/h 10.4mph /  16.7km/h 79.9% 0in /  0.0mm
00:09 67.1 °F /  19.5 °C 61 °F /  16.1 °C 29.9in /  1013.4hPa NNE 6mph /  9.7km/h 10.4mph /  16.7km/h 80.5% 0in /  0.0mm
00:14 66.7 °F /  19.3 °C 61 °F /  16.1 °C 29.9in /  1013.4hPa NNE 6.2mph /  10km/h 10.7mph /  17.2km/h 81.4% 0in /  0.0mm
00:19 66.7 °F /  19.3 °C 61 °F /  16.1 °C 29.9in /  1013.4hPa NNE 6.5mph /  10.4km/h 11.5mph /  18.5km/h 82% 0in /  0.0mm
00:24 66.6 °F /  19.2 °C 61.2 °F /  16.2 °C 29.9in /  1013.3hPa NE 6.9mph /  11.1km/h 12mph /  19.3km/h 82.9% 0in /  0.0mm
00:29 66.6 °F /  19.2 °C 61.2 °F /  16.2 °C 29.9in /  1013.3hPa NNE 6.6mph /  10.7km/h 10.4mph /  16.7km/h 83% 0in /  0.0mm
00:34 66.4 °F /  19.1 °C 61.2 °F /  16.2 °C 29.9in /  1013.5hPa NNE 6.2mph /  10km/h 10mph /  16.1km/h 83% 0in /  0.0mm
00:39 66.2 °F /  19 °C 61 °F /  16.1 °C 29.9in /  1013.5hPa NNE 6.1mph /  9.8km/h 9mph /  14.5km/h 83% 0in /  0.0mm
00:44 66 °F /  18.9 °C 60.8 °F /  16 °C 29.9in /  1013.5hPa NE 5.9mph /  9.5km/h 7.4mph /  11.9km/h 83% 0in /  0.0mm
00:49 66 °F /  18.9 °C 61 °F /  16.1 °C 29.9in /  1013.5hPa NE 5.5mph /  8.8km/h 8.1mph /  13km/h 83.9% 0in /  0.0mm
00:54 66 °F /  18.9 °C 61 °F /  16.1 °C 29.9in /  1013.4hPa NE 4.7mph /  7.6km/h 8mph /  12.9km/h 84% 0in /  0.0mm
00:59 66 °F /  18.9 °C 61 °F /  16.1 °C 29.9in /  1013.4hPa NNE 4.5mph /  7.3km/h 7.6mph /  12.2km/h 84% 0in /  0.0mm
01:04 65.8 °F /  18.8 °C 61 °F /  16.1 °C 29.9in /  1013.4hPa NNE 4.3mph /  6.9km/h 8.1mph /  13km/h 84% 0in /  0.0mm
01:09 65.8 °F /  18.8 °C 61 °F /  16.1 °C 29.9in /  1013.3hPa NNE 4.7mph /  7.5km/h 8mph /  12.9km/h 84% 0in /  0.0mm
01:14 65.8 °F /  18.8 °C 61 °F /  16.1 °C 29.9in /  1013.3hPa NNE 5.2mph /  8.4km/h 8.5mph /  13.7km/h 84% 0in /  0.0mm
01:19 65.7 °F /  18.7 °C 60.8 °F /  16 °C 29.9in /  1013.3hPa NNE 5mph /  8.1km/h 9mph /  14.5km/h 84% 0in /  0.0mm
01:24 65.7 °F /  18.7 °C 61 °F /  16.1 °C 29.9in /  1013.2hPa NNE 4.7mph /  7.6km/h 8.1mph /  13km/h 84.9% 0in /  0.0mm
01:29 65.7 °F /  18.7 °C 61 °F /  16.1 °C 29.9in /  1013.2hPa NNE 5mph /  8km/h 8.1mph /  13km/h 85% 0in /  0.0mm
01:34 65.5 °F /  18.6 °C 60.8 °F /  16 °C 29.9in /  1013.2hPa NNE 5.4mph /  8.7km/h 8.1mph /  13km/h 85% 0in /  0.0mm
01:39 65.5 °F /  18.6 °C 60.8 °F /  16 °C 29.9in /  1013.1hPa NNE 5.2mph /  8.3km/h 8.5mph /  13.7km/h 85% 0in /  0.0mm
01:44 65.7 °F /  18.7 °C 60.8 °F /  16 °C 29.9in /  1013.1hPa NNE 4.7mph /  7.6km/h 9mph /  14.5km/h 84.6% 0in /  0.0mm
01:49 65.7 °F /  18.7 °C 60.6 °F /  15.9 °C 29.9in /  1013.1hPa NNE 4.7mph /  7.6km/h 9mph /  14.5km/h 84% 0in /  0.0mm
01:54 65.7 °F /  18.7 °C 61 °F /  16.1 °C 29.9in /  1012.8hPa NE 4.7mph /  7.6km/h 6.2mph /  10km/h 85% 0in /  0.0mm
01:59 65.5 °F /  18.6 °C 60.8 °F /  16 °C 29.9in /  1012.8hPa NE 4.1mph /  6.6km/h 6mph /  9.7km/h 85% 0in /  0.0mm
02:04 65.5 °F /  18.6 °C 60.8 °F /  16 °C 29.9in /  1012.8hPa NE 3.1mph /  5km/h 5.4mph /  8.7km/h 85% 0in /  0.0mm
02:09 65.3 °F /  18.5 °C 60.8 °F /  16 °C 29.9in /  1012.7hPa NE 3mph /  4.9km/h 5mph /  8km/h 85% 0in /  0.0mm
02:14 65.3 °F /  18.5 °C 61 °F /  16.1 °C 29.9in /  1012.7hPa NE 2.9mph /  4.7km/h 5.9mph /  9.5km/h 85.9% 0in /  0.0mm
02:19 65.1 °F /  18.4 °C 60.8 °F /  16 °C 29.9in /  1012.7hPa NE 2.9mph /  4.7km/h 6mph /  9.7km/h 86% 0in /  0.0mm
02:24 65.1 °F /  18.4 °C 60.8 °F /  16 °C 29.9in /  1012.5hPa NE 2.9mph /  4.7km/h 6mph /  9.7km/h 86% 0in /  0.0mm
02:29 65.1 °F /  18.4 °C 60.8 °F /  16 °C 29.9in /  1012.5hPa ENE 2.9mph /  4.7km/h 5mph /  8km/h 86% 0in /  0.0mm
02:34 65.1 °F /  18.4 °C 60.6 °F /  15.9 °C 29.9in /  1012.5hPa ENE 2.9mph /  4.7km/h 5mph /  8km/h 85.7% 0in /  0.0mm
02:39 64.9 °F /  18.3 °C 60.3 °F /  15.7 °C 29.9in /  1012.1hPa Este 2.5mph /  4.1km/h 5mph /  8km/h 85% 0in /  0.0mm
02:44 64.9 °F /  18.3 °C 60.3 °F /  15.7 °C 29.9in /  1012.1hPa Este 2mph /  3.2km/h 3mph /  4.8km/h 85% 0in /  0.0mm
02:49 64.9 °F /  18.3 °C 60.3 °F /  15.7 °C 29.9in /  1012.2hPa NO 1.8mph /  2.9km/h 4.6mph /  7.4km/h 85% 0in /  0.0mm
02:54 64.9 °F /  18.3 °C 60.1 °F /  15.6 °C 29.9in /  1012.2hPa NO 1.4mph /  2.2km/h 5mph /  8km/h 84.2% 0in /  0.0mm
02:59 64.9 °F /  18.3 °C 60.1 °F /  15.6 °C 29.9in /  1012.2hPa NO 1.4mph /  2.2km/h 3.6mph /  5.8km/h 84% 0in /  0.0mm
03:04 64.9 °F /  18.3 °C 60.1 °F /  15.6 °C 29.9in /  1012.2hPa North 1.4mph /  2.2km/h 4.6mph /  7.4km/h 84% 0in /  0.0mm
03:09 64.9 °F /  18.3 °C 60.1 °F /  15.6 °C 29.9in /  1011.9hPa North 1.6mph /  2.6km/h 5mph /  8km/h 84.2% 0in /  0.0mm
03:14 64.9 °F /  18.3 °C 60.3 °F /  15.7 °C 29.9in /  1011.9hPa North 2mph /  3.2km/h 3.5mph /  5.6km/h 85% 0in /  0.0mm
03:19 64.9 °F /  18.3 °C 60.3 °F /  15.7 °C 29.9in /  1011.9hPa North 1.2mph /  2km/h 2mph /  3.2km/h 85% 0in /  0.0mm
03:24 64.9 °F /  18.3 °C 60.3 °F /  15.7 °C 29.9in /  1011.9hPa Calm     85% 0in /  0.0mm
03:29 64.9 °F /  18.3 °C 60.3 °F /  15.7 °C 29.9in /  1011.9hPa Calm     85% 0in /  0.0mm
03:34 64.9 °F /  18.3 °C 60.3 °F /  15.7 °C 29.9in /  1011.9hPa Calm     85% 0in /  0.0mm
03:39 64.9 °F /  18.3 °C 60.3 °F /  15.7 °C 29.9in /  1011.9hPa Calm     85% 0in /  0.0mm
03:44 64.8 °F /  18.2 °C 60.1 °F /  15.6 °C 29.9in /  1011.9hPa Calm     85% 0in /  0.0mm
03:49 64.8 °F /  18.2 °C 59.7 °F /  15.4 °C 29.9in /  1011.9hPa Calm     83.7% 0in /  0.0mm
03:54 64.6 °F /  18.1 °C 59.4 °F /  15.2 °C 29.9in /  1011.6hPa Calm     83% 0in /  0.0mm
03:59 64.6 °F /  18.1 °C 59.4 °F /  15.2 °C 29.9in /  1011.6hPa Calm     83% 0in /  0.0mm
04:04 64.4 °F /  18 °C 59.2 °F /  15.1 °C 29.9in /  1011.6hPa Calm     83% 0in /  0.0mm
04:09 64.2 °F /  17.9 °C 59 °F /  15 °C 29.9in /  1011.4hPa Calm   3.6mph /  5.8km/h 82.8% 0in /  0.0mm
04:14 64 °F /  17.8 °C 58.8 °F /  14.9 °C 29.9in /  1011.4hPa Calm   4mph /  6.4km/h 82.8% 0in /  0.0mm
04:19 64 °F /  17.8 °C 58.6 °F /  14.8 °C 29.9in /  1011.4hPa Calm   3mph /  4.8km/h 82.5% 0in /  0.0mm
04:24 63.9 °F /  17.7 °C 58.5 °F /  14.7 °C 29.9in /  1011.4hPa Calm     82.6% 0in /  0.0mm
04:29 63.9 °F /  17.7 °C 58.6 °F /  14.8 °C 29.9in /  1011.4hPa Calm     83% 0in /  0.0mm
04:34 63.7 °F /  17.6 °C 58.5 °F /  14.7 °C 29.9in /  1011.4hPa Calm     83% 0in /  0.0mm
04:39 63.7 °F /  17.6 °C 58.5 °F /  14.7 °C 29.9in /  1011.3hPa Calm     83% 0in /  0.0mm
04:44 63.7 °F /  17.6 °C 58.3 °F /  14.6 °C 29.9in /  1011.3hPa Calm   4.3mph /  6.9km/h 82.7% 0in /  0.0mm
04:49 63.7 °F /  17.6 °C 57.9 °F /  14.4 °C 29.9in /  1011.3hPa ESE 0.7mph /  1.1km/h 5mph /  8km/h 81.5% 0in /  0.0mm
04:54 63.7 °F /  17.6 °C 57.7 °F /  14.3 °C 29.9in /  1011.3hPa ESE 1.8mph /  2.9km/h 4mph /  6.4km/h 81% 0in /  0.0mm
04:59 63.9 °F /  17.7 °C 57.9 °F /  14.4 °C 29.9in /  1011.3hPa SSE 1.9mph /  3km/h 5mph /  8km/h 81% 0in /  0.0mm
05:04 63.9 °F /  17.7 °C 57.6 °F /  14.2 °C 29.9in /  1011.3hPa Sur 2mph /  3.2km/h 5mph /  8km/h 80% 0in /  0.0mm
05:09 63.9 °F /  17.7 °C 57.6 °F /  14.2 °C 29.9in /  1011.3hPa Sur 2mph /  3.2km/h 4mph /  6.4km/h 80% 0in /  0.0mm
05:14 64 °F /  17.8 °C 57.7 °F /  14.3 °C 29.9in /  1011.3hPa Sur 2mph /  3.2km/h 3mph /  4.8km/h 80.3% 0in /  0.0mm
05:19 64 °F /  17.8 °C 57.9 °F /  14.4 °C 29.9in /  1011.3hPa SSE 1.8mph /  2.9km/h 4.6mph /  7.4km/h 80.5% 0in /  0.0mm
05:24 64 °F /  17.8 °C 57.6 °F /  14.2 °C 29.9in /  1011.1hPa SSE 1.4mph /  2.2km/h 5.2mph /  8.4km/h 79% 0in /  0.0mm
05:29 64.2 °F /  17.9 °C 57.2 °F /  14 °C 29.9in /  1011.1hPa Sur 2.1mph /  3.3km/h 6.2mph /  10km/h 78% 0in /  0.0mm
05:34 64.2 °F /  17.9 °C 57.2 °F /  14 °C 29.9in /  1011.1hPa Sur 3.1mph /  5km/h 6.2mph /  10km/h 78% 0in /  0.0mm
05:39 64.2 °F /  17.9 °C 56.8 °F /  13.8 °C 29.9in /  1010.9hPa SSE 3.3mph /  5.3km/h 6mph /  9.7km/h 77.1% 0in /  0.0mm
05:44 64.2 °F /  17.9 °C 56.8 °F /  13.8 °C 29.9in /  1010.9hPa Sur 3.6mph /  5.8km/h 6mph /  9.7km/h 77% 0in /  0.0mm
05:49 64.2 °F /  17.9 °C 56.8 °F /  13.8 °C 29.9in /  1011.0hPa Sur 2.9mph /  4.7km/h 5mph /  8km/h 77% 0in /  0.0mm
05:54 64.2 °F /  17.9 °C 56.8 °F /  13.8 °C 29.9in /  1011.0hPa Sur 1.8mph /  2.9km/h 3.5mph /  5.6km/h 77% 0in /  0.0mm
05:59 64.2 °F /  17.9 °C 56.8 °F /  13.8 °C 29.9in /  1011.0hPa Sur 1.1mph /  1.7km/h 3mph /  4.8km/h 77% 0in /  0.0mm
06:04 64 °F /  17.8 °C 56.8 °F /  13.8 °C 29.9in /  1011.0hPa Calm   3.5mph /  5.6km/h 77% 0in /  0.0mm
06:09 63.9 °F /  17.7 °C 56.8 °F /  13.8 °C 29.9in /  1010.9hPa SO 0.5mph /  0.8km/h 4mph /  6.4km/h 77.8% 0in /  0.0mm
06:14 63.5 °F /  17.5 °C 57 °F /  13.9 °C 29.9in /  1010.9hPa ONO 1.4mph /  2.2km/h 5mph /  8km/h 79.3% 0in /  0.0mm
06:19 63.1 °F /  17.3 °C 57 °F /  13.9 °C 29.9in /  1010.9hPa NO 1.4mph /  2.2km/h 5mph /  8km/h 80.5% 0in /  0.0mm
06:24 63 °F /  17.2 °C 57.2 °F /  14 °C 29.9in /  1010.9hPa NO 1.4mph /  2.2km/h 5mph /  8km/h 81.4% 0in /  0.0mm
06:29 62.8 °F /  17.1 °C 57.2 °F /  14 °C 29.9in /  1010.9hPa NO 1.8mph /  2.9km/h 5mph /  8km/h 82% 0in /  0.0mm
06:34 62.4 °F /  16.9 °C 57.2 °F /  14 °C 29.9in /  1010.9hPa NO 2.4mph /  3.9km/h 5mph /  8km/h 83% 0in /  0.0mm
06:39 62.2 °F /  16.8 °C 57 °F /  13.9 °C 29.9in /  1010.9hPa NO 1.5mph /  2.4km/h   83% 0in /  0.0mm
06:44 62.2 °F /  16.8 °C 57.2 °F /  14 °C 29.9in /  1010.9hPa Calm     83.9% 0in /  0.0mm
06:49 62.2 °F /  16.8 °C 57.4 °F /  14.1 °C 29.9in /  1010.9hPa Calm     84% 0in /  0.0mm
06:54 62.2 °F /  16.8 °C 57 °F /  13.9 °C 29.8in /  1010.7hPa Calm     82.9% 0in /  0.0mm
06:59 62.2 °F /  16.8 °C 56.3 °F /  13.5 °C 29.8in /  1010.7hPa Calm     81% 0in /  0.0mm
07:04 62.2 °F /  16.8 °C 55.9 °F /  13.3 °C 29.9in /  1010.9hPa Calm     80% 0in /  0.0mm
07:09 62.2 °F /  16.8 °C 55.9 °F /  13.3 °C 29.9in /  1010.9hPa Calm   3.5mph /  5.6km/h 80.1% 0in /  0.0mm
07:14 62.4 °F /  16.9 °C 56.3 °F /  13.5 °C 29.9in /  1010.9hPa Calm   3mph /  4.8km/h 80.4% 0in /  0.0mm
07:19 62.6 °F /  17 °C 56.1 °F /  13.4 °C 29.9in /  1010.9hPa Calm   4mph /  6.4km/h 79.3% 0in /  0.0mm
07:24 62.8 °F /  17.1 °C 55.8 °F /  13.2 °C 29.9in /  1010.9hPa Calm   5mph /  8km/h 78.1% 0in /  0.0mm
07:29 63 °F /  17.2 °C 55.9 °F /  13.3 °C 29.9in /  1010.9hPa SSO 1.1mph /  1.7km/h 5mph /  8km/h 78% 0in /  0.0mm
07:34 63.1 °F /  17.3 °C 56.1 °F /  13.4 °C 29.9in /  1011.0hPa SSO 2.9mph /  4.7km/h 5mph /  8km/h 78% 0in /  0.0mm
07:39 63.3 °F /  17.4 °C 56.3 °F /  13.5 °C 29.9in /  1011.0hPa SSO 2.4mph /  3.8km/h 3.5mph /  5.6km/h 77.9% 0in /  0.0mm
07:44 63.7 °F /  17.6 °C 55.9 °F /  13.3 °C 29.9in /  1011.0hPa SE 1.4mph /  2.2km/h 3.6mph /  5.8km/h 76% 0in /  0.0mm
07:49 63.7 °F /  17.6 °C 55.2 °F /  12.9 °C 29.9in /  1011.0hPa SE 1.6mph /  2.6km/h 4mph /  6.4km/h 74.1% 0in /  0.0mm
07:54 63.5 °F /  17.5 °C 55.2 °F /  12.9 °C 29.9in /  1010.9hPa SE 2mph /  3.2km/h 4.6mph /  7.4km/h 74% 0in /  0.0mm
07:59 63.5 °F /  17.5 °C 55 °F /  12.8 °C 29.9in /  1010.9hPa SSE 2.2mph /  3.5km/h 5.8mph /  9.3km/h 74% 0in /  0.0mm
08:04 63.5 °F /  17.5 °C 55 °F /  12.8 °C 29.9in /  1010.9hPa SSE 2.4mph /  3.9km/h 6mph /  9.7km/h 74% 0in /  0.0mm
08:09 63.5 °F /  17.5 °C 55 °F /  12.8 °C 29.9in /  1010.9hPa SE 2.7mph /  4.3km/h 6mph /  9.7km/h 74% 0in /  0.0mm
08:14 63.7 °F /  17.6 °C 55.2 °F /  12.9 °C 29.9in /  1010.9hPa SE 3.1mph /  5km/h 6mph /  9.7km/h 74% 0in /  0.0mm
08:19 63.7 °F /  17.6 °C 55.4 °F /  13 °C 29.9in /  1010.9hPa SE 3.3mph /  5.3km/h 5.2mph /  8.4km/h 74.3% 0in /  0.0mm
08:24 63.9 °F /  17.7 °C 55.6 °F /  13.1 °C 29.8in /  1010.7hPa SE 3.6mph /  5.8km/h 5mph /  8km/h 74.3% 0in /  0.0mm
08:29 64 °F /  17.8 °C 55.6 °F /  13.1 °C 29.8in /  1010.7hPa SSE 3.4mph /  5.5km/h 5.8mph /  9.3km/h 74.1% 0in /  0.0mm
08:34 64 °F /  17.8 °C 55.9 °F /  13.3 °C 29.9in /  1010.9hPa SE 3.1mph /  5km/h 6mph /  9.7km/h 75% 0in /  0.0mm
08:39 64 °F /  17.8 °C 55.9 °F /  13.3 °C 29.9in /  1010.9hPa SE 2.7mph /  4.3km/h 4mph /  6.4km/h 75% 0in /  0.0mm
08:44 64.2 °F /  17.9 °C 56.1 °F /  13.4 °C 29.9in /  1010.9hPa SE 2mph /  3.2km/h 3.6mph /  5.8km/h 75% 0in /  0.0mm
08:49 64.4 °F /  18 °C 56.3 °F /  13.5 °C 29.9in /  1010.9hPa SE 1.9mph /  3.1km/h 4mph /  6.4km/h 75.2% 0in /  0.0mm
08:54 64.9 °F /  18.3 °C 56.8 °F /  13.8 °C 29.9in /  1010.8hPa SE 1.8mph /  2.9km/h 3mph /  4.8km/h 75.1% 0in /  0.0mm
08:59 65.7 °F /  18.7 °C 57.2 °F /  14 °C 29.9in /  1010.8hPa ESE 1.1mph /  1.7km/h 2mph /  3.2km/h 74% 0in /  0.0mm
09:04 66.6 °F /  19.2 °C 57.2 °F /  14 °C 29.9in /  1010.8hPa Calm   2.3mph /  3.7km/h 72.1% 0in /  0.0mm
09:09 66.7 °F /  19.3 °C 57 °F /  13.9 °C 29.8in /  1010.7hPa Calm   2mph /  3.2km/h 71% 0in /  0.0mm
09:14 66.9 °F /  19.4 °C 57.2 °F /  14 °C 29.8in /  1010.7hPa Calm     71% 0in /  0.0mm
09:19 66.9 °F /  19.4 °C 56.8 °F /  13.8 °C 29.9in /  1010.8hPa Calm     70% 0in /  0.0mm
09:24 66.9 °F /  19.4 °C 56.5 °F /  13.6 °C 29.9in /  1010.8hPa Calm     69.4% 0in /  0.0mm
09:29 66.7 °F /  19.3 °C 56.3 °F /  13.5 °C 29.9in /  1010.8hPa Calm   5.2mph /  8.4km/h 69% 0in /  0.0mm
09:34 66.6 °F /  19.2 °C 55.9 °F /  13.3 °C 29.9in /  1010.8hPa Calm   5.2mph /  8.4km/h 68.4% 0in /  0.0mm
09:39 66.6 °F /  19.2 °C 55.8 °F /  13.2 °C 29.8in /  1010.7hPa SSO 1.1mph /  1.8km/h 5mph /  8km/h 68% 0in /  0.0mm
09:44 66.6 °F /  19.2 °C 55.8 °F /  13.2 °C 29.8in /  1010.7hPa Sur 2.9mph /  4.7km/h 5mph /  8km/h 68% 0in /  0.0mm
09:49 66.7 °F /  19.3 °C 55.6 °F /  13.1 °C 29.9in /  1010.9hPa SE 2.5mph /  4km/h 5mph /  8km/h 67.3% 0in /  0.0mm
09:54 66.9 °F /  19.4 °C 55.8 °F /  13.2 °C 29.9in /  1010.9hPa OSO 1.8mph /  2.9km/h 4mph /  6.4km/h 67.1% 0in /  0.0mm
09:59 67.3 °F /  19.6 °C 56.8 °F /  13.8 °C 29.9in /  1010.9hPa NNO 1.8mph /  2.9km/h 5mph /  8km/h 69.2% 0in /  0.0mm
10:04 67.3 °F /  19.6 °C 57.2 °F /  14 °C 29.9in /  1010.9hPa NNE 1.8mph /  2.9km/h 5mph /  8km/h 70% 0in /  0.0mm
10:09 67.3 °F /  19.6 °C 57.2 °F /  14 °C 29.9in /  1010.9hPa NNE 2.2mph /  3.6km/h 5.8mph /  9.3km/h 70% 0in /  0.0mm
10:14 67.1 °F /  19.5 °C 57.2 °F /  14 °C 29.9in /  1010.9hPa NE 2.9mph /  4.7km/h 6mph /  9.7km/h 70.3% 0in /  0.0mm
10:19 67.3 °F /  19.6 °C 57.6 °F /  14.2 °C 29.9in /  1010.9hPa ENE 3mph /  4.8km/h 5.9mph /  9.5km/h 70.9% 0in /  0.0mm
10:24 67.3 °F /  19.6 °C 57.6 °F /  14.2 °C 29.9in /  1010.9hPa NE 3.1mph /  5km/h 6mph /  9.7km/h 71% 0in /  0.0mm
10:29 67.3 °F /  19.6 °C 57.6 °F /  14.2 °C 29.9in /  1010.9hPa NE 3.3mph /  5.3km/h 6.2mph /  10km/h 71% 0in /  0.0mm
10:34 67.5 °F /  19.7 °C 57.6 °F /  14.2 °C 29.9in /  1011.0hPa NNE 3.6mph /  5.8km/h 6mph /  9.7km/h 70.8% 0in /  0.0mm
10:39 67.5 °F /  19.7 °C 57.4 °F /  14.1 °C 29.9in /  1011.0hPa NE 3.4mph /  5.5km/h 5mph /  8km/h 70.1% 0in /  0.0mm
10:44 67.6 °F /  19.8 °C 57.4 °F /  14.1 °C 29.9in /  1011.0hPa NE 3.1mph /  5km/h 6.2mph /  10km/h 69.7% 0in /  0.0mm
10:49 67.6 °F /  19.8 °C 57.4 °F /  14.1 °C 29.9in /  1011.0hPa NE 3mph /  4.9km/h 6mph /  9.7km/h 69.5% 0in /  0.0mm
10:54 67.8 °F /  19.9 °C 57.2 °F /  14 °C 29.9in /  1011.0hPa NE 2.9mph /  4.7km/h 6mph /  9.7km/h 69% 0in /  0.0mm
10:59 68 °F /  20 °C 57.6 °F /  14.2 °C 29.9in /  1011.0hPa NNE 2.9mph /  4.7km/h 5.9mph /  9.5km/h 69.5% 0in /  0.0mm
11:04 68.4 °F /  20.2 °C 57.4 °F /  14.1 °C 29.9in /  1011.0hPa NE 2.9mph /  4.7km/h 7.4mph /  11.9km/h 68.2% 0in /  0.0mm
11:09 68.4 °F /  20.2 °C 57.2 °F /  14 °C 29.9in /  1011.0hPa NE 3.4mph /  5.5km/h 9.2mph /  14.8km/h 67.6% 0in /  0.0mm
11:14 68.5 °F /  20.3 °C 56.8 °F /  13.8 °C 29.9in /  1011.0hPa NE 4.3mph /  6.9km/h 10mph /  16.1km/h 66.3% 0in /  0.0mm
11:19 68.9 °F /  20.5 °C 56.5 °F /  13.6 °C 29.9in /  1011.0hPa NE 5mph /  8.1km/h 10.4mph /  16.7km/h 64.5% 0in /  0.0mm
11:24 69.3 °F /  20.7 °C 56.1 °F /  13.4 °C 29.9in /  1011.0hPa NE 6.2mph /  10km/h 10mph /  16.1km/h 62.9% 0in /  0.0mm
11:29 69.6 °F /  20.9 °C 55.2 °F /  12.9 °C 29.9in /  1011.0hPa NE 6.2mph /  10km/h 13mph /  20.9km/h 60.2% 0in /  0.0mm
11:34 69.8 °F /  21 °C 55.6 °F /  13.1 °C 29.9in /  1011.1hPa NE 6.2mph /  10km/h 15.2mph /  24.5km/h 60.6% 0in /  0.0mm
11:39 70 °F /  21.1 °C 55.6 °F /  13.1 °C 29.9in /  1011.1hPa NNE 6.9mph /  11.1km/h 15mph /  24.1km/h 60.2% 0in /  0.0mm
11:44 69.8 °F /  21 °C 55.6 °F /  13.1 °C 29.9in /  1011.1hPa NNE 8.1mph /  13km/h 15mph /  24.1km/h 61% 0in /  0.0mm
11:49 70 °F /  21.1 °C 56.3 °F /  13.5 °C 29.9in /  1011.1hPa NE 8.3mph /  13.4km/h 15mph /  24.1km/h 61.9% 0in /  0.0mm
11:54 70.2 °F /  21.2 °C 56.8 °F /  13.8 °C 29.9in /  1011.1hPa NE 8.7mph /  14km/h 16.1mph /  25.9km/h 63% 0in /  0.0mm
11:59 70.3 °F /  21.3 °C 57.6 °F /  14.2 °C 29.9in /  1011.1hPa NE 8.6mph /  13.9km/h 16.3mph /  26.2km/h 64.2% 0in /  0.0mm
12:04 70.3 °F /  21.3 °C 57.9 °F /  14.4 °C 29.9in /  1011.4hPa NE 8.5mph /  13.7km/h 18.1mph /  29.1km/h 64.9% 0in /  0.0mm
12:09 70.2 °F /  21.2 °C 58.1 °F /  14.5 °C 29.9in /  1011.4hPa NE 9.3mph /  14.9km/h 18.4mph /  29.6km/h 65.6% 0in /  0.0mm
12:14 70.3 °F /  21.3 °C 58.8 °F /  14.9 °C 29.9in /  1011.4hPa NE 10.7mph /  17.2km/h 17mph /  27.4km/h 66.8% 0in /  0.0mm
12:19 70.9 °F /  21.6 °C 59.7 °F /  15.4 °C 29.9in /  1011.4hPa NE 10.1mph /  16.3km/h 20.4mph /  32.8km/h 68.2% 0in /  0.0mm
12:24 70.7 °F /  21.5 °C 60.8 °F /  16 °C 29.9in /  1011.3hPa NE 9.2mph /  14.8km/h 21mph /  33.8km/h 71% 0in /  0.0mm
12:29 70.3 °F /  21.3 °C 61 °F /  16.1 °C 29.9in /  1011.3hPa NE 10.6mph /  17.1km/h 21mph /  33.8km/h 72% 0in /  0.0mm
12:34 70.7 °F /  21.5 °C 61 °F /  16.1 °C 29.9in /  1011.4hPa NE 13mph /  20.9km/h 21mph /  33.8km/h 71.6% 0in /  0.0mm
12:39 70.9 °F /  21.6 °C 61 °F /  16.1 °C 29.9in /  1011.4hPa NE 11.7mph /  18.9km/h 16.1mph /  25.9km/h 70.7% 0in /  0.0mm
12:44 71.1 °F /  21.7 °C 61.3 °F /  16.3 °C 29.9in /  1011.4hPa NE 9.7mph /  15.6km/h 19.6mph /  31.5km/h 71.4% 0in /  0.0mm
12:49 70.7 °F /  21.5 °C 61.2 °F /  16.2 °C 29.9in /  1011.4hPa NNE 10.5mph /  16.9km/h 20mph /  32.2km/h 72% 0in /  0.0mm
12:54 70.9 °F /  21.6 °C 61.3 °F /  16.3 °C 29.9in /  1011.3hPa NE 11.8mph /  19km/h 18.4mph /  29.6km/h 71.9% 0in /  0.0mm
12:59 70.9 °F /  21.6 °C 61 °F /  16.1 °C 29.9in /  1011.3hPa NE 11.4mph /  18.3km/h 18mph /  29km/h 70.8% 0in /  0.0mm
13:04 71.1 °F /  21.7 °C 60.4 °F /  15.8 °C 29.9in /  1011.5hPa NNE 10.7mph /  17.2km/h 19.2mph /  30.9km/h 68.9% 0in /  0.0mm
13:09 71.1 °F /  21.7 °C 60.1 °F /  15.6 °C 29.9in /  1011.5hPa NE 10.9mph /  17.6km/h 20mph /  32.2km/h 68.4% 0in /  0.0mm
13:14 71.1 °F /  21.7 °C 60.1 °F /  15.6 °C 29.9in /  1011.5hPa NE 11.4mph /  18.4km/h 20.7mph /  33.3km/h 68.3% 0in /  0.0mm
13:19 71.2 °F /  21.8 °C 60.1 °F /  15.6 °C 29.9in /  1011.7hPa NE 12.4mph /  20km/h 23.7mph /  38.1km/h 67.6% 0in /  0.0mm
13:24 71.2 °F /  21.8 °C 59.7 °F /  15.4 °C 29.9in /  1011.7hPa NE 14mph /  22.5km/h 24.2mph /  38.9km/h 67% 0in /  0.0mm
13:29 71.2 °F /  21.8 °C 60.1 °F /  15.6 °C 29.9in /  1011.7hPa NE 13.4mph /  21.6km/h 22mph /  35.4km/h 67.8% 0in /  0.0mm
13:34 71.6 °F /  22 °C 59.9 °F /  15.5 °C 29.9in /  1011.7hPa NE 12.5mph /  20.1km/h 18mph /  29km/h 66.5% 0in /  0.0mm
13:39 71.8 °F /  22.1 °C 59.4 °F /  15.2 °C 29.9in /  1011.4hPa NE 11.8mph /  19km/h 21.3mph /  34.3km/h 64.9% 0in /  0.0mm
13:44 72 °F /  22.2 °C 59 °F /  15 °C 29.9in /  1011.4hPa NE 10.7mph /  17.2km/h 21mph /  33.8km/h 63.9% 0in /  0.0mm
13:49 72.3 °F /  22.4 °C 59 °F /  15 °C 29.9in /  1011.4hPa NE 10.7mph /  17.2km/h 17mph /  27.4km/h 63% 0in /  0.0mm
13:54 72.7 °F /  22.6 °C 58.6 °F /  14.8 °C 29.9in /  1011.2hPa NE 10.7mph /  17.2km/h 16.3mph /  26.2km/h 61.4% 0in /  0.0mm
13:59 72.9 °F /  22.7 °C 57.9 °F /  14.4 °C 29.9in /  1011.2hPa NE 10.4mph /  16.8km/h 18.4mph /  29.6km/h 59.6% 0in /  0.0mm
14:04 72.9 °F /  22.7 °C 58.3 °F /  14.6 °C 29.9in /  1011.2hPa NE 10mph /  16.1km/h 21.9mph /  35.2km/h 60.3% 0in /  0.0mm
14:09 73 °F /  22.8 °C 58.1 °F /  14.5 °C 29.9in /  1011.0hPa ENE 10.6mph /  17km/h 22mph /  35.4km/h 59.6% 0in /  0.0mm
14:14 73 °F /  22.8 °C 57.4 °F /  14.1 °C 29.9in /  1011.0hPa ENE 11.4mph /  18.4km/h 20.1mph /  32.3km/h 57.9% 0in /  0.0mm
14:19 73 °F /  22.8 °C 56.3 °F /  13.5 °C 29.9in /  1011.0hPa ENE 11.4mph /  18.4km/h 21mph /  33.8km/h 55.9% 0in /  0.0mm
14:24 73 °F /  22.8 °C 54.7 °F /  12.6 °C 29.9in /  1010.9hPa NE 11.4mph /  18.4km/h 22.3mph /  35.9km/h 52.6% 0in /  0.0mm
14:29 73 °F /  22.8 °C 54.1 °F /  12.3 °C 29.9in /  1010.9hPa ENE 11.6mph /  18.6km/h 22mph /  35.4km/h 51.6% 0in /  0.0mm
14:34 73.6 °F /  23.1 °C 54.7 °F /  12.6 °C 29.9in /  1010.9hPa NE 11.8mph /  19km/h 19mph /  30.6km/h 51.8% 0in /  0.0mm
14:39 74.1 °F /  23.4 °C 53.8 °F /  12.1 °C 29.9in /  1010.8hPa NE 11.2mph /  18km/h 19.6mph /  31.5km/h 49.2% 0in /  0.0mm
14:44 74.5 °F /  23.6 °C 54.1 °F /  12.3 °C 29.9in /  1010.8hPa ENE 10.2mph /  16.4km/h 20.8mph /  33.5km/h 49.3% 0in /  0.0mm
14:49 74.1 °F /  23.4 °C 54 °F /  12.2 °C 29.9in /  1010.8hPa ENE 10.4mph /  16.7km/h 21mph /  33.8km/h 49.2% 0in /  0.0mm
14:54 74.1 °F /  23.4 °C 53.1 °F /  11.7 °C 29.9in /  1010.8hPa ENE 10.7mph /  17.2km/h 21mph /  33.8km/h 47.8% 0in /  0.0mm
14:59 73.9 °F /  23.3 °C 52.5 °F /  11.4 °C 29.9in /  1010.8hPa NE 11.3mph /  18.2km/h 21mph /  33.8km/h 47.2% 0in /  0.0mm
15:04 74.3 °F /  23.5 °C 52.9 °F /  11.6 °C 29.9in /  1010.8hPa ENE 12.3mph /  19.8km/h 19.6mph /  31.5km/h 47.2% 0in /  0.0mm
15:09 74.3 °F /  23.5 °C 53.1 °F /  11.7 °C 29.8in /  1010.6hPa ENE 11.5mph /  18.5km/h 20.7mph /  33.3km/h 47.5% 0in /  0.0mm
15:14 74.5 °F /  23.6 °C 52.3 °F /  11.3 °C 29.8in /  1010.6hPa NE 10.2mph /  16.4km/h 23.5mph /  37.8km/h 46.3% 0in /  0.0mm
15:19 74.5 °F /  23.6 °C 52.2 °F /  11.2 °C 29.8in /  1010.6hPa NE 10.9mph /  17.6km/h 24.8mph /  39.9km/h 45.7% 0in /  0.0mm
15:24 74.5 °F /  23.6 °C 50.7 °F /  10.4 °C 29.8in /  1010.6hPa NE 12.3mph /  19.8km/h 26.5mph /  42.6km/h 43.2% 0in /  0.0mm
15:29 74.5 °F /  23.6 °C 50 °F /  10 °C 29.8in /  1010.6hPa NE 13.5mph /  21.8km/h 26mph /  41.8km/h 42.1% 0in /  0.0mm
15:34 74.7 °F /  23.7 °C 49.5 °F /  9.7 °C 29.8in /  1010.7hPa NE 15.6mph /  25.1km/h 25.6mph /  41.2km/h 41.1% 0in /  0.0mm
15:39 74.8 °F /  23.8 °C 47.8 °F /  8.8 °C 29.8in /  1010.7hPa NE 14.6mph /  23.5km/h 26mph /  41.8km/h 38.3% 0in /  0.0mm
15:44 74.5 °F /  23.6 °C 48.2 °F /  9 °C 29.8in /  1010.7hPa NE 13mph /  20.9km/h 27.6mph /  44.4km/h 39.4% 0in /  0.0mm
15:49 73.9 °F /  23.3 °C 49.1 °F /  9.5 °C 29.9in /  1010.8hPa NE 14mph /  22.5km/h 28mph /  45.1km/h 41.5% 0in /  0.0mm
15:54 73.8 °F /  23.2 °C 50.5 °F /  10.3 °C 29.9in /  1010.8hPa NE 15.6mph /  25.1km/h 26.8mph /  43.1km/h 44.1% 0in /  0.0mm
15:59 73.8 °F /  23.2 °C 49.8 °F /  9.9 °C 29.9in /  1010.8hPa NE 16.2mph /  26km/h 27mph /  43.5km/h 43.2% 0in /  0.0mm
16:04 73.4 °F /  23 °C 48.7 °F /  9.3 °C 29.9in /  1010.8hPa NE 17mph /  27.4km/h 31.3mph /  50.4km/h 41.9% 0in /  0.0mm
16:09 73.2 °F /  22.9 °C 48.9 °F /  9.4 °C 29.8in /  1010.7hPa NE 17.4mph /  28km/h 31mph /  49.9km/h 42.3% 0in /  0.0mm
16:14 72.9 °F /  22.7 °C 50 °F /  10 °C 29.8in /  1010.7hPa NE 18.1mph /  29.1km/h 29mph /  46.7km/h 44.3% 0in /  0.0mm
16:19 73 °F /  22.8 °C 50 °F /  10 °C 29.8in /  1010.7hPa NE 17.4mph /  28km/h 26.5mph /  42.6km/h 44.5% 0in /  0.0mm
16:24 72.9 °F /  22.7 °C 50.5 °F /  10.3 °C 29.8in /  1010.7hPa NE 16.3mph /  26.2km/h 26mph /  41.8km/h 45.5% 0in /  0.0mm
16:29 72.1 °F /  22.3 °C 49.6 °F /  9.8 °C 29.8in /  1010.7hPa NE 15.7mph /  25.3km/h 25.3mph /  40.7km/h 44.8% 0in /  0.0mm
16:34 72 °F /  22.2 °C 50 °F /  10 °C 29.8in /  1010.7hPa NE 14.7mph /  23.7km/h 26.5mph /  42.6km/h 45.9% 0in /  0.0mm
16:39 72.3 °F /  22.4 °C 50.5 °F /  10.3 °C 29.8in /  1010.7hPa NE 14.7mph /  23.7km/h 26mph /  41.8km/h 46.4% 0in /  0.0mm
16:44 72.5 °F /  22.5 °C 51.8 °F /  11 °C 29.8in /  1010.7hPa NE 14.7mph /  23.7km/h 23mph /  37km/h 48% 0in /  0.0mm
16:49 72.7 °F /  22.6 °C 52.5 °F /  11.4 °C 29.9in /  1010.9hPa NE 13.6mph /  21.9km/h 23mph /  37km/h 49.1% 0in /  0.0mm
16:54 72.9 °F /  22.7 °C 52.3 °F /  11.3 °C 29.9in /  1010.9hPa ENE 11.8mph /  19km/h 21mph /  33.8km/h 48.7% 0in /  0.0mm
16:59 72.9 °F /  22.7 °C 52 °F /  11.1 °C 29.9in /  1010.9hPa ENE 12.3mph /  19.8km/h 24.2mph /  38.9km/h 48% 0in /  0.0mm
17:04 72.9 °F /  22.7 °C 51.8 °F /  11 °C 29.9in /  1010.9hPa ENE 13mph /  20.9km/h 24mph /  38.6km/h 47.6% 0in /  0.0mm
17:09 72.7 °F /  22.6 °C 49.3 °F /  9.6 °C 29.9in /  1010.8hPa ENE 13mph /  20.9km/h 25.3mph /  40.7km/h 43.7% 0in /  0.0mm
17:14 72.1 °F /  22.3 °C 48.4 °F /  9.1 °C 29.9in /  1010.8hPa NE 13mph /  20.9km/h 25mph /  40.2km/h 42.9% 0in /  0.0mm
17:19 72 °F /  22.2 °C 48.2 °F /  9 °C 29.9in /  1010.9hPa NE 12.7mph /  20.5km/h 24.2mph /  38.9km/h 42.8% 0in /  0.0mm
17:24 72 °F /  22.2 °C 48.6 °F /  9.2 °C 29.9in /  1010.9hPa ENE 12.3mph /  19.8km/h 24mph /  38.6km/h 43.7% 0in /  0.0mm
17:29 71.6 °F /  22 °C 46.8 °F /  8.2 °C 29.9in /  1010.9hPa NE 12.4mph /  19.9km/h 24.2mph /  38.9km/h 41.1% 0in /  0.0mm
17:34 71.2 °F /  21.8 °C 46.9 °F /  8.3 °C 29.9in /  1011.1hPa NE 12.5mph /  20.1km/h 24.2mph /  38.9km/h 41.8% 0in /  0.0mm
17:39 71.1 °F /  21.7 °C 47.5 °F /  8.6 °C 29.9in /  1011.1hPa NE 12.7mph /  20.4km/h 24mph /  38.6km/h 42.9% 0in /  0.0mm
17:44 70.9 °F /  21.6 °C 46.9 °F /  8.3 °C 29.9in /  1011.1hPa NE 13mph /  20.9km/h 25.6mph /  41.2km/h 42.5% 0in /  0.0mm
17:49 70.7 °F /  21.5 °C 47.1 °F /  8.4 °C 29.9in /  1011.1hPa ENE 13.5mph /  21.8km/h 26mph /  41.8km/h 43% 0in /  0.0mm
17:54 70.5 °F /  21.4 °C 47.8 °F /  8.8 °C 29.8in /  1010.7hPa ENE 14.5mph /  23.3km/h 23.7mph /  38.1km/h 44.7% 0in /  0.0mm
17:59 70.2 °F /  21.2 °C 48.4 °F /  9.1 °C 29.8in /  1010.7hPa NE 13.4mph /  21.6km/h 24.2mph /  38.9km/h 46% 0in /  0.0mm
18:04 69.6 °F /  20.9 °C 48.6 °F /  9.2 °C 29.9in /  1010.8hPa NE 11.8mph /  19km/h 27.6mph /  44.4km/h 46.9% 0in /  0.0mm
18:09 69.4 °F /  20.8 °C 48.4 °F /  9.1 °C 29.9in /  1010.8hPa NE 12.4mph /  20km/h 28mph /  45.1km/h 47% 0in /  0.0mm
18:14 69.3 °F /  20.7 °C 48.7 °F /  9.3 °C 29.9in /  1010.8hPa NE 13.5mph /  21.7km/h 23mph /  37km/h 48.1% 0in /  0.0mm
18:19 69.3 °F /  20.7 °C 49.3 °F /  9.6 °C 29.9in /  1011.3hPa NE 13.3mph /  21.4km/h 22mph /  35.4km/h 49.1% 0in /  0.0mm
18:24 68.9 °F /  20.5 °C 49.8 °F /  9.9 °C 29.9in /  1011.3hPa NE 13mph /  20.9km/h 22mph /  35.4km/h 50.4% 0in /  0.0mm
18:29 69.1 °F /  20.6 °C 49.3 °F /  9.6 °C 29.9in /  1011.3hPa NE 12.7mph /  20.5km/h 23mph /  37km/h 49.4% 0in /  0.0mm
18:34 68.7 °F /  20.4 °C 49.5 °F /  9.7 °C 29.9in /  1011.3hPa NE 12.3mph /  19.8km/h 23mph /  37km/h 50% 0in /  0.0mm
18:39 68.7 °F /  20.4 °C 49.6 °F /  9.8 °C 29.9in /  1011.1hPa NE 13.1mph /  21.1km/h 22mph /  35.4km/h 50.5% 0in /  0.0mm
18:44 68.7 °F /  20.4 °C 49.8 °F /  9.9 °C 29.9in /  1011.1hPa NE 14.5mph /  23.3km/h 23mph /  37km/h 51% 0in /  0.0mm
18:49 68.5 °F /  20.3 °C 49.6 °F /  9.8 °C 29.9in /  1011.1hPa NE 13.9mph /  22.4km/h 23mph /  37km/h 51% 0in /  0.0mm
18:54 68.4 °F /  20.2 °C 50 °F /  10 °C 29.9in /  1011.1hPa NE 13mph /  20.9km/h 21mph /  33.8km/h 51.9% 0in /  0.0mm
18:59 68.4 °F /  20.2 °C 50 °F /  10 °C 29.9in /  1011.1hPa NE 12.1mph /  19.5km/h 21mph /  33.8km/h 52.2% 0in /  0.0mm
19:04 68.2 °F /  20.1 °C 50.5 °F /  10.3 °C 29.9in /  1011.8hPa NE 10.7mph /  17.2km/h 16.1mph /  25.9km/h 53% 0in /  0.0mm
19:09 68.2 °F /  20.1 °C 50 °F /  10 °C 29.9in /  1011.8hPa NNE 10.4mph /  16.8km/h 18.4mph /  29.6km/h 52.4% 0in /  0.0mm
19:14 67.8 °F /  19.9 °C 49.6 °F /  9.8 °C 29.9in /  1011.8hPa NE 10mph /  16.1km/h 21.5mph /  34.6km/h 52.2% 0in /  0.0mm
19:19 67.6 °F /  19.8 °C 50 °F /  10 °C 29.9in /  1012.6hPa NE 11.1mph /  17.9km/h 22mph /  35.4km/h 53.3% 0in /  0.0mm
19:24 67.5 °F /  19.7 °C 50.5 °F /  10.3 °C 29.9in /  1012.6hPa NNE 13mph /  20.9km/h 18.4mph /  29.6km/h 54.7% 0in /  0.0mm
19:29 66.9 °F /  19.4 °C 50.9 °F /  10.5 °C 29.9in /  1012.6hPa NNE 11.9mph /  19.2km/h 18mph /  29km/h 56.1% 0in /  0.0mm
19:34 66.7 °F /  19.3 °C 51.8 °F /  11 °C 29.9in /  1013.0hPa NNE 10mph /  16.1km/h 14mph /  22.5km/h 58.4% 0in /  0.0mm
19:39 66.6 °F /  19.2 °C 51.3 °F /  10.7 °C 29.9in /  1013.0hPa NNE 8.4mph /  13.6km/h 9.7mph /  15.6km/h 57.8% 0in /  0.0mm
19:44 66.2 °F /  19 °C 51.3 °F /  10.7 °C 29.9in /  1013.0hPa NE 5.9mph /  9.5km/h 10mph /  16.1km/h 58.5% 0.02in /  0.5mm
19:49 65.8 °F /  18.8 °C 51.4 °F /  10.8 °C 29.9in /  1013.5hPa NE 5mph /  8.1km/h 7mph /  11.3km/h 59.4% 0.03in /  0.8mm
19:54 65.7 °F /  18.7 °C 52.3 °F /  11.3 °C 29.9in /  1013.5hPa NNE 3.6mph /  5.8km/h 7.6mph /  12.2km/h 62.3% 0.04in /  1.0mm
19:59 64.9 °F /  18.3 °C 53.1 °F /  11.7 °C 29.9in /  1013.5hPa NNE 3.7mph /  6km/h 9.2mph /  14.8km/h 65.5% 0.05in /  1.3mm
20:04 64 °F /  17.8 °C 52.3 °F /  11.3 °C 29.9in /  1013.5hPa NNE 4mph /  6.5km/h 13.7mph /  22km/h 65.8% 0.06in /  1.5mm
20:09 63.3 °F /  17.4 °C 51.8 °F /  11 °C 29.9in /  1013.4hPa NE 5.3mph /  8.5km/h 14mph /  22.5km/h 66% 0.07in /  1.8mm
20:14 63 °F /  17.2 °C 52.3 °F /  11.3 °C 29.9in /  1013.4hPa NE 7.4mph /  11.9km/h 12.5mph /  20.1km/h 68.6% 0.09in /  2.3mm
20:19 62.4 °F /  16.9 °C 53.4 °F /  11.9 °C 29.9in /  1013.4hPa ENE 7.6mph /  12.3km/h 13mph /  20.9km/h 72.1% 0.11in /  2.8mm
20:24 62.1 °F /  16.7 °C 53.8 °F /  12.1 °C 29.9in /  1012.3hPa ENE 8.1mph /  13km/h 13mph /  20.9km/h 74.4% 0.13in /  3.3mm
20:29 61.5 °F /  16.4 °C 53.6 °F /  12 °C 29.9in /  1012.3hPa NE 7.4mph /  11.9km/h 12.5mph /  20.1km/h 75% 0.13in /  3.3mm
20:34 61.5 °F /  16.4 °C 52.9 °F /  11.6 °C 29.9in /  1012.5hPa NE 6.2mph /  10km/h 13mph /  20.9km/h 73.5% 0.13in /  3.3mm
20:39 61.3 °F /  16.3 °C 52.9 °F /  11.6 °C 29.9in /  1012.5hPa NE 6.1mph /  9.8km/h 13mph /  20.9km/h 73.3% 0.13in /  3.3mm
20:44 61.5 °F /  16.4 °C 53.1 °F /  11.7 °C 29.9in /  1012.5hPa ENE 5.9mph /  9.5km/h 8.1mph /  13km/h 73.6% 0.12in /  3.0mm
20:49 61.5 °F /  16.4 °C 52.7 °F /  11.5 °C 29.9in /  1012.5hPa ENE 5.2mph /  8.3km/h 9.2mph /  14.8km/h 72.6% 0.11in /  2.8mm
20:54 61.7 °F /  16.5 °C 52.2 °F /  11.2 °C 29.9in /  1012.5hPa NE 4mph /  6.5km/h 10mph /  16.1km/h 71.1% 0.1in /  2.5mm
20:59 61.9 °F /  16.6 °C 52.3 °F /  11.3 °C 29.9in /  1012.5hPa NNE 4.3mph /  6.9km/h 10.4mph /  16.7km/h 71.2% 0.09in /  2.3mm
21:04 61.9 °F /  16.6 °C 52.9 °F /  11.6 °C 29.9in /  1012.8hPa NNO 4.7mph /  7.6km/h 10mph /  16.1km/h 72.5% 0.08in /  2.0mm
21:09 61.7 °F /  16.5 °C 53.2 °F /  11.8 °C 29.9in /  1012.8hPa NO 4.5mph /  7.2km/h 7.6mph /  12.2km/h 73.5% 0.07in /  1.8mm
21:14 61.5 °F /  16.4 °C 53.4 °F /  11.9 °C 29.9in /  1012.8hPa ONO 4mph /  6.5km/h 9.2mph /  14.8km/h 74.5% 0.05in /  1.3mm
21:19 61.5 °F /  16.4 °C 54 °F /  12.2 °C 29.9in /  1013.2hPa ONO 4.3mph /  6.9km/h 9mph /  14.5km/h 75.9% 0.04in /  1.0mm
21:24 61.3 °F /  16.3 °C 54 °F /  12.2 °C 29.9in /  1013.2hPa Oeste 4.7mph /  7.6km/h 8mph /  12.9km/h 76.3% 0.01in /  0.2mm
21:29 61.5 °F /  16.4 °C 54.3 °F /  12.4 °C 29.9in /  1013.2hPa OSO 4.1mph /  6.6km/h 6mph /  9.7km/h 77.2% 0in /  0.0mm
21:34 61.5 °F /  16.4 °C 54 °F /  12.2 °C 29.9in /  1013.4hPa Oeste 3.1mph /  5km/h 5.9mph /  9.5km/h 76.4% 0in /  0.0mm
21:39 61.5 °F /  16.4 °C 54 °F /  12.2 °C 29.9in /  1013.4hPa Oeste 3mph /  4.9km/h 6mph /  9.7km/h 75.9% 0in /  0.0mm
21:44 61.9 °F /  16.6 °C 53.8 °F /  12.1 °C 29.9in /  1013.4hPa Oeste 2.9mph /  4.7km/h 6.9mph /  11.1km/h 75% 0in /  0.0mm
21:49 61.9 °F /  16.6 °C 54.1 °F /  12.3 °C 29.9in /  1013.6hPa OSO 3.3mph /  5.3km/h 7mph /  11.3km/h 75.6% 0in /  0.0mm
21:54 61.9 °F /  16.6 °C 54 °F /  12.2 °C 29.9in /  1013.6hPa Oeste 4mph /  6.5km/h 7mph /  11.3km/h 75.1% 0in /  0.0mm
21:59 61.9 °F /  16.6 °C 53.8 °F /  12.1 °C 29.9in /  1013.6hPa ONO 4mph /  6.5km/h 8.1mph /  13km/h 74.6% 0in /  0.0mm
22:04 61.9 °F /  16.6 °C 53.6 °F /  12 °C 29.9in /  1013.8hPa Oeste 4mph /  6.5km/h 8mph /  12.9km/h 74.3% 0in /  0.0mm
22:09 61.9 °F /  16.6 °C 53.2 °F /  11.8 °C 29.9in /  1013.8hPa Oeste 3.9mph /  6.2km/h 6.9mph /  11.1km/h 73.3% 0in /  0.0mm
22:14 62.1 °F /  16.7 °C 53.8 °F /  12.1 °C 29.9in /  1013.8hPa OSO 3.6mph /  5.8km/h 7mph /  11.3km/h 74% 0in /  0.0mm
22:19 62.1 °F /  16.7 °C 53.6 °F /  12 °C 29.9in /  1013.9hPa Oeste 3.4mph /  5.5km/h 6.9mph /  11.1km/h 73.8% 0in /  0.0mm
22:24 62.2 °F /  16.8 °C 53.4 °F /  11.9 °C 29.9in /  1013.9hPa OSO 3.1mph /  5km/h 7mph /  11.3km/h 73.1% 0in /  0.0mm
22:29 62.2 °F /  16.8 °C 53.4 °F /  11.9 °C 29.9in /  1013.9hPa OSO 3.1mph /  5km/h 7mph /  11.3km/h 72.7% 0in /  0.0mm
22:34 62.2 °F /  16.8 °C 53.4 °F /  11.9 °C 29.9in /  1014.0hPa OSO 3.1mph /  5km/h 5mph /  8km/h 72.7% 0in /  0.0mm
22:39 62.2 °F /  16.8 °C 53.4 °F /  11.9 °C 29.9in /  1014.0hPa Oeste 2.7mph /  4.4km/h 5mph /  8km/h 72.7% 0in /  0.0mm
22:44 62.4 °F /  16.9 °C 53.4 °F /  11.9 °C 29.9in /  1014.0hPa OSO 2mph /  3.2km/h 5.8mph /  9.3km/h 72.4% 0in /  0.0mm
22:49 62.4 °F /  16.9 °C 53.1 °F /  11.7 °C 30in /  1014.2hPa SO 2.4mph /  3.9km/h 6mph /  9.7km/h 71.3% 0in /  0.0mm
22:54 62.4 °F /  16.9 °C 52.9 °F /  11.6 °C 30in /  1014.2hPa SO 3.1mph /  5km/h 5mph /  8km/h 71.1% 0in /  0.0mm
22:59 62.6 °F /  17 °C 53.1 °F /  11.7 °C 30in /  1014.2hPa SSO 3.1mph /  5km/h 6.9mph /  11.1km/h 71.3% 0in /  0.0mm
23:04 62.4 °F /  16.9 °C 53.8 °F /  12.1 °C 30in /  1014.2hPa Sur 3.1mph /  5km/h 7mph /  11.3km/h 73.1% 0in /  0.0mm
23:09 62.2 °F /  16.8 °C 54.1 °F /  12.3 °C 30in /  1014.2hPa Sur 3.7mph /  5.9km/h 8.5mph /  13.7km/h 74.7% 0in /  0.0mm
23:14 61.9 °F /  16.6 °C 54 °F /  12.2 °C 30in /  1014.2hPa SSO 4.7mph /  7.6km/h 9.2mph /  14.8km/h 75.1% 0in /  0.0mm
23:19 61.5 °F /  16.4 °C 53.6 °F /  12 °C 30in /  1014.2hPa SSO 5.2mph /  8.4km/h 10.4mph /  16.7km/h 75.1% 0in /  0.0mm
23:24 61.5 °F /  16.4 °C 53.4 °F /  11.9 °C 30in /  1014.2hPa Sur 6.2mph /  10km/h 10mph /  16.1km/h 75% 0in /  0.0mm
23:29 61.5 °F /  16.4 °C 53.4 °F /  11.9 °C 30in /  1014.2hPa Sur 6.1mph /  9.8km/h 9.2mph /  14.8km/h 75% 0in /  0.0mm
23:34 61.5 °F /  16.4 °C 53.4 °F /  11.9 °C 30in /  1014.2hPa SSO 5.9mph /  9.5km/h 9mph /  14.5km/h 74.9% 0in /  0.0mm
23:39 61.5 °F /  16.4 °C 53.2 °F /  11.8 °C 29.9in /  1014.1hPa SSO 5.7mph /  9.1km/h 8mph /  12.9km/h 74% 0in /  0.0mm
23:44 61.3 °F /  16.3 °C 53.1 °F /  11.7 °C 29.9in /  1014.1hPa SSO 5.2mph /  8.4km/h 7.4mph /  11.9km/h 74% 0in /  0.0mm
23:49 61.5 °F /  16.4 °C 53.1 °F /  11.7 °C 30in /  1014.2hPa SSO 4.8mph /  7.8km/h 8.1mph /  13km/h 73.7% 0in /  0.0mm
23:54 61.5 °F /  16.4 °C 52.9 °F /  11.6 °C 30in /  1014.2hPa SSO 4.3mph /  6.9km/h 8mph /  12.9km/h 73% 0in /  0.0mm
23:59 61.5 °F /  16.4 °C 52.7 °F /  11.5 °C 30in /  1014.2hPa SO 4.3mph /  6.9km/h 8.1mph /  13km/h 72.8% 0in /  0.0mm
Murcia-Puente Tocinos, España
Compliments of Weather Underground - 3.5 mb

La estación de MeteoMurcia.com, publica sus datos en los siguientes proyectos:

Weather Underground PWS IMURCIAP2 Meteoclimatic www.awekas.at

W3Counter
Web Analytics